createdAt,value
2019-01-06T00:00:31.402Z,1002.5
2019-01-06T00:01:31.359Z,1002.47
2019-01-06T00:02:31.353Z,1002.46
2019-01-06T00:03:31.341Z,1002.42
2019-01-06T00:04:31.364Z,1002.48
2019-01-06T00:05:31.325Z,1002.46
2019-01-06T00:06:31.372Z,1002.48
2019-01-06T00:07:31.306Z,1002.44
2019-01-06T00:08:31.295Z,1002.47
2019-01-06T00:09:31.289Z,1002.45
2019-01-06T00:10:31.279Z,1002.51
2019-01-06T00:11:31.290Z,1002.45
2019-01-06T00:12:31.262Z,1002.54
2019-01-06T00:13:31.250Z,1002.52
2019-01-06T00:14:31.242Z,1002.52
2019-01-06T00:15:31.237Z,1002.64
2019-01-06T00:16:31.242Z,1002.59
2019-01-06T00:17:31.224Z,1002.58
2019-01-06T00:18:31.209Z,1002.58
2019-01-06T00:19:31.210Z,1002.57
2019-01-06T00:20:31.202Z,1002.63
2019-01-06T00:21:31.182Z,1002.62
2019-01-06T00:22:31.186Z,1002.56
2019-01-06T00:23:31.166Z,1002.62
2019-01-06T00:24:31.159Z,1002.61
2019-01-06T00:25:31.145Z,1002.59
2019-01-06T00:26:31.198Z,1002.54
2019-01-06T00:27:31.128Z,1002.54
2019-01-06T00:28:31.144Z,1002.56
2019-01-06T00:29:31.127Z,1002.53
2019-01-06T00:30:31.111Z,1002.54
2019-01-06T00:31:31.884Z,1002.5
2019-01-06T00:32:31.088Z,1002.49
2019-01-06T00:33:31.099Z,1002.5
2019-01-06T00:34:31.075Z,1002.53
2019-01-06T00:35:31.062Z,1002.47
2019-01-06T00:36:31.142Z,1002.46
2019-01-06T00:37:31.051Z,1002.51
2019-01-06T00:38:31.028Z,1002.48
2019-01-06T00:39:31.021Z,1002.51
2019-01-06T00:40:31.011Z,1002.49
2019-01-06T00:41:31.045Z,1002.54
2019-01-06T00:42:31.011Z,1002.54
2019-01-06T00:43:31.002Z,1002.46
2019-01-06T00:44:30.977Z,1002.56
2019-01-06T00:45:30.967Z,1002.53
2019-01-06T00:46:31.062Z,1002.5
2019-01-06T00:47:30.948Z,1002.52
2019-01-06T00:48:30.940Z,1002.5
2019-01-06T00:49:30.963Z,1002.56
2019-01-06T00:50:30.921Z,1002.53
2019-01-06T00:51:30.918Z,1002.57
2019-01-06T00:52:30.905Z,1002.61
2019-01-06T00:53:30.896Z,1002.57
2019-01-06T00:54:30.888Z,1002.59
2019-01-06T00:55:30.876Z,1002.55
2019-01-06T00:56:30.870Z,1002.54
2019-01-06T00:57:30.859Z,1002.55
2019-01-06T00:58:30.845Z,1002.55
2019-01-06T00:59:30.837Z,1002.53
2019-01-06T01:00:30.834Z,1002.55
2019-01-06T01:01:30.873Z,1002.49
2019-01-06T01:02:30.813Z,1002.48
2019-01-06T01:03:30.803Z,1002.46
2019-01-06T01:04:30.802Z,1002.51
2019-01-06T01:05:30.788Z,1002.47
2019-01-06T01:06:30.828Z,1002.51
2019-01-06T01:07:30.794Z,1002.47
2019-01-06T01:08:30.759Z,1002.45
2019-01-06T01:09:30.757Z,1002.51
2019-01-06T01:10:30.752Z,1002.47
2019-01-06T01:11:30.798Z,1002.46
2019-01-06T01:12:30.719Z,1002.49
2019-01-06T01:13:30.720Z,1002.48
2019-01-06T01:14:30.708Z,1002.42
2019-01-06T01:15:30.706Z,1002.5
2019-01-06T01:16:30.725Z,1002.53
2019-01-06T01:17:30.680Z,1002.53
2019-01-06T01:18:30.665Z,1002.44
2019-01-06T01:19:30.659Z,1002.5
2019-01-06T01:20:30.650Z,1002.58
2019-01-06T01:21:30.699Z,1002.58
2019-01-06T01:22:30.630Z,1002.58
2019-01-06T01:23:30.621Z,1002.57
2019-01-06T01:24:30.620Z,1002.56
2019-01-06T01:25:30.598Z,1002.56
2019-01-06T01:26:30.636Z,1002.59
2019-01-06T01:27:30.580Z,1002.55
2019-01-06T01:28:30.573Z,1002.58
2019-01-06T01:29:30.578Z,1002.58
2019-01-06T01:30:30.557Z,1002.58
2019-01-06T01:31:30.597Z,1002.6
2019-01-06T01:32:30.538Z,1002.68
2019-01-06T01:33:30.522Z,1002.65
2019-01-06T01:34:30.524Z,1002.63
2019-01-06T01:35:30.512Z,1002.64
2019-01-06T01:36:30.537Z,1002.7
2019-01-06T01:37:30.485Z,1002.61
2019-01-06T01:38:30.476Z,1002.66
2019-01-06T01:39:30.468Z,1002.71
2019-01-06T01:40:30.461Z,1002.74
2019-01-06T01:41:30.450Z,1002.71
2019-01-06T01:42:30.441Z,1002.7
2019-01-06T01:43:30.429Z,1002.72
2019-01-06T01:44:30.421Z,1002.73
2019-01-06T01:45:30.420Z,1002.73
2019-01-06T01:46:30.487Z,1002.71
2019-01-06T01:47:30.393Z,1002.77
2019-01-06T01:48:30.385Z,1002.71
2019-01-06T01:49:30.375Z,1002.76
2019-01-06T01:50:30.367Z,1002.71
2019-01-06T01:51:30.377Z,1002.71
2019-01-06T01:52:30.347Z,1002.72
2019-01-06T01:53:30.339Z,1002.7
2019-01-06T01:54:30.329Z,1002.72
2019-01-06T01:55:30.322Z,1002.7
2019-01-06T01:56:30.339Z,1002.73
2019-01-06T01:57:30.307Z,1002.73
2019-01-06T01:58:30.294Z,1002.68
2019-01-06T01:59:30.281Z,1002.72
2019-01-06T02:00:30.273Z,1002.76
2019-01-06T02:01:30.373Z,1002.73
2019-01-06T02:02:30.258Z,1002.71
2019-01-06T02:03:30.277Z,1002.77
2019-01-06T02:04:30.239Z,1002.77
2019-01-06T02:05:30.226Z,1002.83
2019-01-06T02:06:30.229Z,1002.72
2019-01-06T02:07:30.211Z,1002.72
2019-01-06T02:08:30.350Z,1002.86
2019-01-06T02:09:30.194Z,1002.75
2019-01-06T02:10:30.202Z,1002.82
2019-01-06T02:11:30.254Z,1002.75
2019-01-06T02:12:30.163Z,1002.79
2019-01-06T02:13:30.155Z,1002.77
2019-01-06T02:14:30.163Z,1002.8
2019-01-06T02:15:30.141Z,1002.85
2019-01-06T02:16:30.149Z,1002.85
2019-01-06T02:17:30.120Z,1002.82
2019-01-06T02:18:30.114Z,1002.86
2019-01-06T02:19:30.103Z,1002.86
2019-01-06T02:20:32.812Z,1002.85
2019-01-06T02:21:30.145Z,1002.83
2019-01-06T02:22:30.085Z,1002.84
2019-01-06T02:23:30.098Z,1002.83
2019-01-06T02:24:30.055Z,1002.85
2019-01-06T02:25:30.056Z,1002.84
2019-01-06T02:26:30.146Z,1002.86
2019-01-06T02:27:30.028Z,1002.82
2019-01-06T02:28:30.038Z,1002.87
2019-01-06T02:29:30.044Z,1002.84
2019-01-06T02:30:29.999Z,1002.82
2019-01-06T02:31:29.991Z,1002.85
2019-01-06T02:32:29.981Z,1002.84
2019-01-06T02:33:30.044Z,1002.82
2019-01-06T02:34:29.961Z,1002.83
2019-01-06T02:35:29.954Z,1002.9
2019-01-06T02:36:29.943Z,1002.91
2019-01-06T02:37:29.940Z,1002.89
2019-01-06T02:38:29.926Z,1002.84
2019-01-06T02:39:29.917Z,1002.92
2019-01-06T02:40:29.906Z,1002.79
2019-01-06T02:41:29.896Z,1002.85
2019-01-06T02:42:29.892Z,1002.78
2019-01-06T02:43:29.879Z,1002.84
2019-01-06T02:44:29.875Z,1002.85
2019-01-06T02:45:29.862Z,1002.83
2019-01-06T02:46:29.853Z,1002.79
2019-01-06T02:47:29.840Z,1002.83
2019-01-06T02:48:29.833Z,1002.82
2019-01-06T02:49:29.825Z,1002.84
2019-01-06T02:50:29.816Z,1002.76
2019-01-06T02:51:29.858Z,1002.82
2019-01-06T02:52:29.799Z,1002.83
2019-01-06T02:53:29.784Z,1002.83
2019-01-06T02:54:29.795Z,1002.82
2019-01-06T02:55:29.771Z,1002.82
2019-01-06T02:56:29.760Z,1002.81
2019-01-06T02:57:29.759Z,1002.82
2019-01-06T02:58:29.744Z,1002.8
2019-01-06T02:59:29.730Z,1002.81
2019-01-06T03:00:29.720Z,1002.83
2019-01-06T03:01:29.713Z,1002.83
2019-01-06T03:02:29.702Z,1002.79
2019-01-06T03:03:29.705Z,1002.81
2019-01-06T03:04:29.683Z,1002.85
2019-01-06T03:05:29.682Z,1002.83
2019-01-06T03:06:29.691Z,1002.79
2019-01-06T03:07:29.656Z,1002.74
2019-01-06T03:08:29.649Z,1002.74
2019-01-06T03:09:29.645Z,1002.73
2019-01-06T03:10:29.627Z,1002.77
2019-01-06T03:11:29.698Z,1002.76
2019-01-06T03:12:29.608Z,1002.7
2019-01-06T03:13:29.601Z,1002.7
2019-01-06T03:14:29.600Z,1002.7
2019-01-06T03:15:29.584Z,1002.7
2019-01-06T03:16:29.575Z,1002.6
2019-01-06T03:17:29.562Z,1002.62
2019-01-06T03:18:29.561Z,1002.6
2019-01-06T03:19:29.544Z,1002.62
2019-01-06T03:20:29.534Z,1002.61
2019-01-06T03:21:29.525Z,1002.57
2019-01-06T03:22:29.528Z,1002.59
2019-01-06T03:23:29.505Z,1002.6
2019-01-06T03:24:29.499Z,1002.55
2019-01-06T03:25:29.500Z,1002.56
2019-01-06T03:26:29.480Z,1002.54
2019-01-06T03:27:29.470Z,1002.53
2019-01-06T03:28:29.458Z,1002.54
2019-01-06T03:29:29.450Z,1002.55
2019-01-06T03:30:29.445Z,1002.57
2019-01-06T03:31:29.443Z,1002.54
2019-01-06T03:32:29.431Z,1002.51
2019-01-06T03:33:29.430Z,1002.58
2019-01-06T03:34:29.409Z,1002.5
2019-01-06T03:35:29.397Z,1002.59
2019-01-06T03:36:29.385Z,1002.47
2019-01-06T03:37:29.378Z,1002.56
2019-01-06T03:38:29.370Z,1002.55
2019-01-06T03:39:29.368Z,1002.51
2019-01-06T03:40:29.352Z,1002.49
2019-01-06T03:41:29.346Z,1002.55
2019-01-06T03:42:29.332Z,1002.54
2019-01-06T03:43:29.320Z,1002.51
2019-01-06T03:44:29.316Z,1002.51
2019-01-06T03:45:29.309Z,1002.47
2019-01-06T03:46:29.294Z,1002.47
2019-01-06T03:47:29.283Z,1002.43
2019-01-06T03:48:29.275Z,1002.48
2019-01-06T03:49:29.269Z,1002.46
2019-01-06T03:50:29.259Z,1002.42
2019-01-06T03:51:29.252Z,1002.42
2019-01-06T03:52:29.237Z,1002.46
2019-01-06T03:53:29.229Z,1002.51
2019-01-06T03:54:29.224Z,1002.44
2019-01-06T03:55:29.209Z,1002.5
2019-01-06T03:56:29.201Z,1002.44
2019-01-06T03:57:29.193Z,1002.47
2019-01-06T03:58:29.181Z,1002.53
2019-01-06T03:59:29.172Z,1002.53
2019-01-06T04:00:29.163Z,1002.49
2019-01-06T04:01:29.165Z,1002.54
2019-01-06T04:02:29.156Z,1002.51
2019-01-06T04:03:29.139Z,1002.48
2019-01-06T04:04:29.129Z,1002.47
2019-01-06T04:05:29.117Z,1002.48
2019-01-06T04:06:29.158Z,1002.49
2019-01-06T04:07:29.099Z,1002.47
2019-01-06T04:08:29.098Z,1002.43
2019-01-06T04:09:29.091Z,1002.48
2019-01-06T04:10:29.073Z,1002.41
2019-01-06T04:11:29.065Z,1002.44
2019-01-06T04:12:29.054Z,1002.47
2019-01-06T04:13:29.043Z,1002.44
2019-01-06T04:14:29.037Z,1002.44
2019-01-06T04:15:29.035Z,1002.46
2019-01-06T04:16:29.015Z,1002.53
2019-01-06T04:17:29.013Z,1002.48
2019-01-06T04:18:28.997Z,1002.5
2019-01-06T04:19:28.988Z,1002.54
2019-01-06T04:20:28.980Z,1002.52
2019-01-06T04:21:29.037Z,1002.54
2019-01-06T04:22:28.958Z,1002.52
2019-01-06T04:23:28.950Z,1002.5
2019-01-06T04:24:28.942Z,1002.49
2019-01-06T04:25:28.933Z,1002.4
2019-01-06T04:26:28.921Z,1002.46
2019-01-06T04:27:28.913Z,1002.5
2019-01-06T04:28:28.904Z,1002.47
2019-01-06T04:29:28.896Z,1002.49
2019-01-06T04:30:28.908Z,1002.42
2019-01-06T04:31:28.879Z,1002.56
2019-01-06T04:32:28.876Z,1002.6
2019-01-06T04:33:28.866Z,1002.6
2019-01-06T04:34:28.851Z,1002.6
2019-01-06T04:35:28.857Z,1002.57
2019-01-06T04:36:28.954Z,1002.53
2019-01-06T04:37:28.832Z,1002.52
2019-01-06T04:38:28.821Z,1002.51
2019-01-06T04:39:28.805Z,1002.46
2019-01-06T04:40:28.802Z,1002.46
2019-01-06T04:41:28.805Z,1002.5
2019-01-06T04:42:28.780Z,1002.47
2019-01-06T04:43:28.778Z,1002.44
2019-01-06T04:44:28.761Z,1002.39
2019-01-06T04:45:28.760Z,1002.48
2019-01-06T04:46:28.738Z,1002.44
2019-01-06T04:47:28.740Z,1002.45
2019-01-06T04:48:28.733Z,1002.5
2019-01-06T04:49:28.712Z,1002.44
2019-01-06T04:50:28.700Z,1002.48
2019-01-06T04:51:28.692Z,1002.48
2019-01-06T04:52:28.691Z,1002.51
2019-01-06T04:53:28.672Z,1002.47
2019-01-06T04:54:28.664Z,1002.49
2019-01-06T04:55:28.653Z,1002.48
2019-01-06T04:56:28.652Z,1002.48
2019-01-06T04:57:28.635Z,1002.43
2019-01-06T04:58:28.639Z,1002.49
2019-01-06T04:59:28.625Z,1002.48
2019-01-06T05:00:28.617Z,1002.47
2019-01-06T05:01:28.609Z,1002.54
2019-01-06T05:02:28.587Z,1002.51
2019-01-06T05:03:28.579Z,1002.5
2019-01-06T05:04:28.572Z,1002.52
2019-01-06T05:05:28.567Z,1002.5
2019-01-06T05:06:28.560Z,1002.53
2019-01-06T05:07:28.554Z,1002.53
2019-01-06T05:08:28.533Z,1002.52
2019-01-06T05:09:28.523Z,1002.45
2019-01-06T05:10:28.512Z,1002.57
2019-01-06T05:11:28.502Z,1002.58
2019-01-06T05:12:28.507Z,1002.56
2019-01-06T05:13:28.485Z,1002.51
2019-01-06T05:14:28.478Z,1002.57
2019-01-06T05:15:28.467Z,1002.54
2019-01-06T05:16:28.454Z,1002.55
2019-01-06T05:17:28.446Z,1002.52
2019-01-06T05:18:28.438Z,1002.48
2019-01-06T05:19:28.426Z,1002.48
2019-01-06T05:20:28.417Z,1002.44
2019-01-06T05:21:28.408Z,1002.46
2019-01-06T05:22:28.402Z,1002.45
2019-01-06T05:23:28.390Z,1002.51
2019-01-06T05:24:28.383Z,1002.52
2019-01-06T05:25:28.377Z,1002.51
2019-01-06T05:26:28.366Z,1002.51
2019-01-06T05:27:28.354Z,1002.57
2019-01-06T05:28:28.347Z,1002.57
2019-01-06T05:29:28.335Z,1002.57
2019-01-06T05:30:28.325Z,1002.58
2019-01-06T05:31:28.318Z,1002.58
2019-01-06T05:32:28.305Z,1002.61
2019-01-06T05:33:28.295Z,1002.62
2019-01-06T05:34:28.286Z,1002.61
2019-01-06T05:35:28.280Z,1002.65
2019-01-06T05:36:28.269Z,1002.6
2019-01-06T05:37:28.265Z,1002.6
2019-01-06T05:38:28.249Z,1002.6
2019-01-06T05:39:28.239Z,1002.63
2019-01-06T05:40:28.233Z,1002.6
2019-01-06T05:41:28.224Z,1002.62
2019-01-06T05:42:28.213Z,1002.63
2019-01-06T05:43:28.214Z,1002.59
2019-01-06T05:44:28.211Z,1002.6
2019-01-06T05:45:28.202Z,1002.55
2019-01-06T05:46:28.176Z,1002.58
2019-01-06T05:47:28.166Z,1002.57
2019-01-06T05:48:28.166Z,1002.6
2019-01-06T05:49:28.179Z,1002.59
2019-01-06T05:50:28.153Z,1002.61
2019-01-06T05:51:28.126Z,1002.66
2019-01-06T05:52:29.218Z,1002.63
2019-01-06T05:53:28.108Z,1002.66
2019-01-06T05:54:28.096Z,1002.71
2019-01-06T05:55:28.088Z,1002.73
2019-01-06T05:56:28.077Z,1002.72
2019-01-06T05:57:28.068Z,1002.71
2019-01-06T05:58:28.062Z,1002.73
2019-01-06T05:59:28.054Z,1002.76
2019-01-06T06:00:28.059Z,1002.76
2019-01-06T06:01:28.033Z,1002.74
2019-01-06T06:02:28.026Z,1002.71
2019-01-06T06:03:28.015Z,1002.74
2019-01-06T06:04:28.011Z,1002.74
2019-01-06T06:05:28.004Z,1002.69
2019-01-06T06:06:27.992Z,1002.73
2019-01-06T06:07:29.850Z,1002.76
2019-01-06T06:08:27.971Z,1002.76
2019-01-06T06:09:27.966Z,1002.74
2019-01-06T06:10:27.956Z,1002.68
2019-01-06T06:11:27.962Z,1002.71
2019-01-06T06:12:27.935Z,1002.68
2019-01-06T06:13:27.923Z,1002.7
2019-01-06T06:14:27.912Z,1002.69
2019-01-06T06:15:27.917Z,1002.67
2019-01-06T06:16:27.896Z,1002.75
2019-01-06T06:17:27.884Z,1002.74
2019-01-06T06:18:27.877Z,1002.74
2019-01-06T06:19:27.867Z,1002.76
2019-01-06T06:20:27.865Z,1002.78
2019-01-06T06:21:27.851Z,1002.8
2019-01-06T06:22:27.847Z,1002.76
2019-01-06T06:23:27.838Z,1002.76
2019-01-06T06:24:27.827Z,1002.83
2019-01-06T06:25:27.883Z,1002.85
2019-01-06T06:26:27.800Z,1002.85
2019-01-06T06:27:27.790Z,1002.86
2019-01-06T06:28:28.583Z,1002.83
2019-01-06T06:29:27.771Z,1002.86
2019-01-06T06:30:27.761Z,1002.86
2019-01-06T06:31:27.756Z,1002.88
2019-01-06T06:32:27.745Z,1002.86
2019-01-06T06:33:27.751Z,1002.85
2019-01-06T06:34:27.728Z,1002.85
2019-01-06T06:35:27.720Z,1002.85
2019-01-06T06:36:27.706Z,1002.85
2019-01-06T06:37:27.700Z,1002.87
2019-01-06T06:38:27.693Z,1002.88
2019-01-06T06:39:27.677Z,1002.87
2019-01-06T06:40:27.669Z,1002.86
2019-01-06T06:41:27.660Z,1002.87
2019-01-06T06:42:27.651Z,1002.86
2019-01-06T06:43:27.640Z,1002.92
2019-01-06T06:44:27.633Z,1002.94
2019-01-06T06:45:27.621Z,1002.93
2019-01-06T06:46:27.613Z,1002.98
2019-01-06T06:47:27.604Z,1002.97
2019-01-06T06:48:27.595Z,1003.03
2019-01-06T06:49:27.584Z,1003
2019-01-06T06:50:27.577Z,1003.06
2019-01-06T06:51:27.569Z,1003.05
2019-01-06T06:52:27.556Z,1003.07
2019-01-06T06:53:27.549Z,1003.07
2019-01-06T06:54:27.542Z,1003.13
2019-01-06T06:55:27.532Z,1003.15
2019-01-06T06:56:27.522Z,1003.12
2019-01-06T06:57:27.511Z,1003.14
2019-01-06T06:58:27.513Z,1003.16
2019-01-06T06:59:27.493Z,1003.12
2019-01-06T07:00:27.484Z,1003.14
2019-01-06T07:01:27.473Z,1003.12
2019-01-06T07:02:27.465Z,1003.17
2019-01-06T07:03:27.458Z,1003.14
2019-01-06T07:04:27.447Z,1003.17
2019-01-06T07:05:27.439Z,1003.19
2019-01-06T07:06:27.429Z,1003.23
2019-01-06T07:07:27.419Z,1003.2
2019-01-06T07:08:27.409Z,1003.22
2019-01-06T07:09:27.400Z,1003.27
2019-01-06T07:10:27.397Z,1003.29
2019-01-06T07:11:27.382Z,1003.28
2019-01-06T07:12:27.398Z,1003.26
2019-01-06T07:13:27.441Z,1003.32
2019-01-06T07:14:27.354Z,1003.31
2019-01-06T07:15:27.346Z,1003.33
2019-01-06T07:16:27.334Z,1003.3
2019-01-06T07:17:27.325Z,1003.34
2019-01-06T07:18:27.319Z,1003.41
2019-01-06T07:19:27.307Z,1003.41
2019-01-06T07:20:27.299Z,1003.37
2019-01-06T07:21:27.289Z,1003.37
2019-01-06T07:22:27.281Z,1003.39
2019-01-06T07:23:27.267Z,1003.41
2019-01-06T07:24:27.268Z,1003.38
2019-01-06T07:25:27.253Z,1003.45
2019-01-06T07:26:27.246Z,1003.38
2019-01-06T07:27:27.237Z,1003.39
2019-01-06T07:28:27.234Z,1003.39
2019-01-06T07:29:27.216Z,1003.37
2019-01-06T07:30:27.222Z,1003.4
2019-01-06T07:31:27.197Z,1003.42
2019-01-06T07:32:27.187Z,1003.42
2019-01-06T07:33:27.189Z,1003.43
2019-01-06T07:34:27.175Z,1003.45
2019-01-06T07:35:27.160Z,1003.47
2019-01-06T07:36:27.152Z,1003.47
2019-01-06T07:37:27.145Z,1003.42
2019-01-06T07:38:27.131Z,1003.47
2019-01-06T07:39:27.123Z,1003.48
2019-01-06T07:40:27.116Z,1003.47
2019-01-06T07:41:27.110Z,1003.46
2019-01-06T07:42:27.096Z,1003.49
2019-01-06T07:43:27.099Z,1003.48
2019-01-06T07:44:27.079Z,1003.49
2019-01-06T07:45:27.068Z,1003.48
2019-01-06T07:46:27.061Z,1003.56
2019-01-06T07:47:27.057Z,1003.5
2019-01-06T07:48:27.042Z,1003.53
2019-01-06T07:49:27.039Z,1003.52
2019-01-06T07:50:27.022Z,1003.54
2019-01-06T07:51:27.013Z,1003.54
2019-01-06T07:52:27.013Z,1003.55
2019-01-06T07:53:26.993Z,1003.59
2019-01-06T07:54:27.292Z,1003.55
2019-01-06T07:55:26.979Z,1003.58
2019-01-06T07:56:26.980Z,1003.56
2019-01-06T07:57:26.961Z,1003.57
2019-01-06T07:58:26.949Z,1003.58
2019-01-06T07:59:26.942Z,1003.6
2019-01-06T08:00:26.930Z,1003.59
2019-01-06T08:01:26.922Z,1003.61
2019-01-06T08:02:26.912Z,1003.63
2019-01-06T08:03:26.906Z,1003.63
2019-01-06T08:04:26.893Z,1003.62
2019-01-06T08:05:26.884Z,1003.62
2019-01-06T08:06:26.882Z,1003.58
2019-01-06T08:07:26.863Z,1003.63
2019-01-06T08:08:26.853Z,1003.63
2019-01-06T08:09:26.851Z,1003.63
2019-01-06T08:10:26.841Z,1003.59
2019-01-06T08:11:26.830Z,1003.68
2019-01-06T08:12:26.822Z,1003.68
2019-01-06T08:13:26.809Z,1003.71
2019-01-06T08:14:26.801Z,1003.69
2019-01-06T08:15:26.800Z,1003.68
2019-01-06T08:16:26.782Z,1003.71
2019-01-06T08:17:26.774Z,1003.71
2019-01-06T08:18:26.769Z,1003.75
2019-01-06T08:19:26.756Z,1003.77
2019-01-06T08:20:26.745Z,1003.78
2019-01-06T08:21:26.737Z,1003.79
2019-01-06T08:22:26.727Z,1003.75
2019-01-06T08:23:26.723Z,1003.79
2019-01-06T08:24:26.714Z,1003.78
2019-01-06T08:25:26.701Z,1003.82
2019-01-06T08:26:26.695Z,1003.82
2019-01-06T08:27:26.680Z,1003.82
2019-01-06T08:28:26.671Z,1003.88
2019-01-06T08:29:26.662Z,1003.86
2019-01-06T08:30:26.654Z,1003.89
2019-01-06T08:31:26.643Z,1003.83
2019-01-06T08:32:26.635Z,1003.87
2019-01-06T08:33:26.631Z,1003.89
2019-01-06T08:34:26.623Z,1003.87
2019-01-06T08:35:26.606Z,1003.87
2019-01-06T08:36:26.600Z,1003.89
2019-01-06T08:37:26.592Z,1003.93
2019-01-06T08:38:26.585Z,1003.91
2019-01-06T08:39:26.571Z,1003.9
2019-01-06T08:40:26.623Z,1003.93
2019-01-06T08:41:26.559Z,1003.93
2019-01-06T08:42:26.546Z,1003.99
2019-01-06T08:43:26.534Z,1003.97
2019-01-06T08:44:26.525Z,1003.95
2019-01-06T08:45:26.520Z,1003.94
2019-01-06T08:46:26.508Z,1003.9
2019-01-06T08:47:26.499Z,1003.96
2019-01-06T08:48:26.491Z,1003.93
2019-01-06T08:49:26.493Z,1003.99
2019-01-06T08:50:26.473Z,1003.99
2019-01-06T08:51:26.464Z,1003.99
2019-01-06T08:52:26.454Z,1003.95
2019-01-06T08:53:26.446Z,1003.96
2019-01-06T08:54:26.436Z,1003.96
2019-01-06T08:55:30.680Z,1003.94
2019-01-06T08:56:26.418Z,1004
2019-01-06T08:57:26.408Z,1003.97
2019-01-06T08:58:26.402Z,1003.97
2019-01-06T08:59:26.393Z,1003.98
2019-01-06T09:00:26.397Z,1003.99
2019-01-06T09:01:26.372Z,1003.99
2019-01-06T09:02:26.363Z,1003.99
2019-01-06T09:03:26.353Z,1003.97
2019-01-06T09:04:26.349Z,1004
2019-01-06T09:05:26.335Z,1004.04
2019-01-06T09:06:26.329Z,1004.01
2019-01-06T09:07:26.322Z,1003.98
2019-01-06T09:08:26.307Z,1004.02
2019-01-06T09:09:26.298Z,1004.04
2019-01-06T09:10:26.290Z,1004.02
2019-01-06T09:11:26.282Z,1004
2019-01-06T09:12:26.271Z,1004.04
2019-01-06T09:13:26.267Z,1004.03
2019-01-06T09:14:26.255Z,1004.04
2019-01-06T09:15:26.244Z,1004.07
2019-01-06T09:16:26.238Z,1004.04
2019-01-06T09:17:26.226Z,1004.09
2019-01-06T09:18:26.216Z,1004.09
2019-01-06T09:19:26.211Z,1004.09
2019-01-06T09:20:26.202Z,1004.12
2019-01-06T09:21:26.191Z,1004.16
2019-01-06T09:22:26.185Z,1004.15
2019-01-06T09:23:26.189Z,1004.13
2019-01-06T09:24:26.159Z,1004.11
2019-01-06T09:25:26.153Z,1004.16
2019-01-06T09:26:26.149Z,1004.12
2019-01-06T09:27:26.138Z,1004.15
2019-01-06T09:28:26.128Z,1004.17
2019-01-06T09:29:26.133Z,1004.13
2019-01-06T09:30:26.113Z,1004.21
2019-01-06T09:31:26.902Z,1004.22
2019-01-06T09:32:26.089Z,1004.18
2019-01-06T09:33:26.081Z,1004.22
2019-01-06T09:34:26.074Z,1004.23
2019-01-06T09:35:26.157Z,1004.22
2019-01-06T09:36:26.057Z,1004.28
2019-01-06T09:37:26.044Z,1004.22
2019-01-06T09:38:26.038Z,1004.23
2019-01-06T09:39:26.025Z,1004.24
2019-01-06T09:40:27.044Z,1004.21
2019-01-06T09:41:26.011Z,1004.27
2019-01-06T09:42:26.004Z,1004.22
2019-01-06T09:43:25.996Z,1004.25
2019-01-06T09:44:25.984Z,1004.24
2019-01-06T09:45:25.981Z,1004.24
2019-01-06T09:46:25.964Z,1004.23
2019-01-06T09:47:25.957Z,1004.27
2019-01-06T09:48:25.950Z,1004.26
2019-01-06T09:49:25.938Z,1004.27
2019-01-06T09:50:25.930Z,1004.26
2019-01-06T09:51:25.921Z,1004.28
2019-01-06T09:52:25.914Z,1004.29
2019-01-06T09:53:25.902Z,1004.27
2019-01-06T09:54:25.894Z,1004.29
2019-01-06T09:55:25.884Z,1004.28
2019-01-06T09:56:25.876Z,1004.28
2019-01-06T09:57:25.872Z,1004.27
2019-01-06T09:58:25.858Z,1004.24
2019-01-06T09:59:25.850Z,1004.28
2019-01-06T10:00:25.843Z,1004.31
2019-01-06T10:01:25.833Z,1004.31
2019-01-06T10:02:25.826Z,1004.25
2019-01-06T10:03:25.817Z,1004.28
2019-01-06T10:04:25.806Z,1004.26
2019-01-06T10:05:25.798Z,1004.23
2019-01-06T10:06:25.788Z,1004.23
2019-01-06T10:07:25.783Z,1004.22
2019-01-06T10:08:25.784Z,1004.24
2019-01-06T10:09:25.760Z,1004.29
2019-01-06T10:10:25.753Z,1004.26
2019-01-06T10:11:25.743Z,1004.23
2019-01-06T10:12:26.033Z,1004.24
2019-01-06T10:13:25.726Z,1004.18
2019-01-06T10:14:25.723Z,1004.2
2019-01-06T10:15:25.712Z,1004.16
2019-01-06T10:16:25.701Z,1004.18
2019-01-06T10:17:25.715Z,1004.21
2019-01-06T10:18:25.680Z,1004.17
2019-01-06T10:19:25.692Z,1004.16
2019-01-06T10:20:25.661Z,1004.2
2019-01-06T10:21:25.652Z,1004.21
2019-01-06T10:22:25.644Z,1004.21
2019-01-06T10:23:25.636Z,1004.22
2019-01-06T10:24:25.646Z,1004.21
2019-01-06T10:25:25.618Z,1004.21
2019-01-06T10:26:25.621Z,1004.21
2019-01-06T10:27:27.503Z,1004.24
2019-01-06T10:28:25.591Z,1004.25
2019-01-06T10:29:25.582Z,1004.18
2019-01-06T10:30:25.592Z,1004.22
2019-01-06T10:31:25.570Z,1004.23
2019-01-06T10:32:25.559Z,1004.26
2019-01-06T10:33:25.556Z,1004.24
2019-01-06T10:34:27.485Z,1004.26
2019-01-06T10:35:25.532Z,1004.27
2019-01-06T10:36:25.567Z,1004.27
2019-01-06T10:37:25.516Z,1004.22
2019-01-06T10:38:25.505Z,1004.23
2019-01-06T10:39:25.497Z,1004.22
2019-01-06T10:40:25.487Z,1004.27
2019-01-06T10:41:25.478Z,1004.23
2019-01-06T10:42:25.471Z,1004.22
2019-01-06T10:43:25.465Z,1004.26
2019-01-06T10:44:25.459Z,1004.28
2019-01-06T10:45:25.456Z,1004.27
2019-01-06T10:46:25.439Z,1004.28
2019-01-06T10:47:25.431Z,1004.28
2019-01-06T10:48:25.423Z,1004.29
2019-01-06T10:49:25.411Z,1004.34
2019-01-06T10:50:25.410Z,1004.31
2019-01-06T10:51:25.394Z,1004.32
2019-01-06T10:52:25.404Z,1004.25
2019-01-06T10:53:25.381Z,1004.27
2019-01-06T10:54:25.385Z,1004.28
2019-01-06T10:55:25.360Z,1004.28
2019-01-06T10:56:25.358Z,1004.27
2019-01-06T10:57:25.345Z,1004.27
2019-01-06T10:58:25.347Z,1004.29
2019-01-06T10:59:25.349Z,1004.25
2019-01-06T11:00:25.335Z,1004.27
2019-01-06T11:01:25.312Z,1004.28
2019-01-06T11:02:25.300Z,1004.26
2019-01-06T11:03:25.294Z,1004.27
2019-01-06T11:04:25.291Z,1004.29
2019-01-06T11:05:25.297Z,1004.24
2019-01-06T11:06:25.265Z,1004.26
2019-01-06T11:07:25.262Z,1004.27
2019-01-06T11:08:25.251Z,1004.28
2019-01-06T11:09:25.240Z,1004.24
2019-01-06T11:10:25.228Z,1004.29
2019-01-06T11:11:25.223Z,1004.28
2019-01-06T11:12:25.213Z,1004.29
2019-01-06T11:13:25.208Z,1004.23
2019-01-06T11:14:25.197Z,1004.28
2019-01-06T11:15:25.191Z,1004.34
2019-01-06T11:16:25.197Z,1004.29
2019-01-06T11:17:25.177Z,1004.31
2019-01-06T11:18:25.165Z,1004.3
2019-01-06T11:19:25.161Z,1004.34
2019-01-06T11:20:25.150Z,1004.34
2019-01-06T11:21:25.169Z,1004.31
2019-01-06T11:22:25.133Z,1004.33
2019-01-06T11:23:25.122Z,1004.36
2019-01-06T11:24:25.124Z,1004.28
2019-01-06T11:25:25.112Z,1004.27
2019-01-06T11:26:25.108Z,1004.27
2019-01-06T11:27:25.106Z,1004.23
2019-01-06T11:28:25.101Z,1004.33
2019-01-06T11:29:25.071Z,1004.36
2019-01-06T11:30:25.064Z,1004.37
2019-01-06T11:31:25.056Z,1004.35
2019-01-06T11:32:25.059Z,1004.35
2019-01-06T11:33:25.053Z,1004.31
2019-01-06T11:34:25.036Z,1004.3
2019-01-06T11:35:25.020Z,1004.35
2019-01-06T11:36:25.012Z,1004.33
2019-01-06T11:37:25.011Z,1004.3
2019-01-06T11:38:25.055Z,1004.38
2019-01-06T11:39:24.987Z,1004.3
2019-01-06T11:40:24.982Z,1004.33
2019-01-06T11:41:24.986Z,1004.32
2019-01-06T11:42:24.963Z,1004.31
2019-01-06T11:43:24.956Z,1004.3
2019-01-06T11:44:24.955Z,1004.32
2019-01-06T11:45:24.942Z,1004.39
2019-01-06T11:46:24.930Z,1004.36
2019-01-06T11:47:24.920Z,1004.36
2019-01-06T11:48:24.914Z,1004.36
2019-01-06T11:49:24.906Z,1004.36
2019-01-06T11:50:24.896Z,1004.35
2019-01-06T11:51:24.887Z,1004.33
2019-01-06T11:52:24.882Z,1004.33
2019-01-06T11:53:24.872Z,1004.31
2019-01-06T11:54:24.861Z,1004.33
2019-01-06T11:55:24.852Z,1004.31
2019-01-06T11:56:24.848Z,1004.34
2019-01-06T11:57:24.841Z,1004.3
2019-01-06T11:58:24.825Z,1004.33
2019-01-06T11:59:24.818Z,1004.32
2019-01-06T12:00:24.809Z,1004.27
2019-01-06T12:01:24.802Z,1004.35
2019-01-06T12:02:24.797Z,1004.23
2019-01-06T12:03:24.785Z,1004.29
2019-01-06T12:04:24.776Z,1004.26
2019-01-06T12:05:24.769Z,1004.33
2019-01-06T12:06:24.759Z,1004.31
2019-01-06T12:07:24.752Z,1004.31